Time;durP1;ratioP1;P1;durP2;ratioP2;P2;SDS_P1;SDS_P2;PMS_P1;PMS_P2;Temp;Humidity;BMP_temperature;BMP_pressure;BME280_temperature;BME280_humidity;BME280_pressure;Samples;Min_cycle;Max_cycle;Signal;HPM_P1;HPM_P2
2023/03/13 00:01:27;;;;;;;21.57;11.03;;;6.20;99.90;;;;;;5036849;28;20460;-65
2023/03/13 00:03:54;;;;;;;19.20;10.67;;;6.20;99.90;;;;;;5037957;28;20947;-65
2023/03/13 00:06:22;;;;;;;15.83;10.50;;;6.30;99.90;;;;;;5037808;28;20941;-64
2023/03/13 00:08:50;;;;;;;15.63;10.50;;;6.30;99.90;;;;;;5038328;28;20547;-65
2023/03/13 00:11:17;;;;;;;20.50;10.80;;;6.40;99.90;;;;;;5037828;28;20499;-64
2023/03/13 00:13:44;;;;;;;20.23;10.63;;;6.40;99.90;;;;;;5037749;28;20538;-65
2023/03/13 00:16:13;;;;;;;17.57;10.60;;;6.50;99.90;;;;;;4998390;28;20492;-65
2023/03/13 00:18:45;;;;;;;18.70;10.03;;;6.50;99.90;;;;;;4998112;28;20561;-64
2023/03/13 00:21:12;;;;;;;17.53;10.30;;;6.40;99.90;;;;;;4998294;28;20446;-66
2023/03/13 00:23:39;;;;;;;14.13;10.07;;;6.50;99.90;;;;;;4998615;28;20548;-65
2023/03/13 00:26:09;;;;;;;18.70;10.53;;;6.50;99.90;;;;;;4998290;28;20458;-65
2023/03/13 00:28:38;;;;;;;17.63;9.30;;;6.60;99.90;;;;;;4997901;28;20790;-65
2023/03/13 00:31:06;;;;;;;16.80;9.90;;;6.60;99.90;;;;;;4997621;28;20461;-65
2023/03/13 00:33:33;;;;;;;19.73;10.27;;;6.60;99.90;;;;;;4997784;28;20461;-64
2023/03/13 00:36:01;;;;;;;16.77;9.53;;;6.60;99.90;;;;;;4997836;28;20457;-65
2023/03/13 00:38:28;;;;;;;22.53;10.30;;;6.60;99.90;;;;;;4998033;28;20496;-66
2023/03/13 00:41:03;;;;;;;20.77;11.37;;;6.70;99.90;;;;;;4997908;28;20469;-64
2023/03/13 00:43:32;;;;;;;16.43;9.00;;;6.70;99.90;;;;;;4997878;28;20505;-64
2023/03/13 00:45:59;;;;;;;26.27;9.93;;;6.70;99.90;;;;;;4998321;28;20490;-65
2023/03/13 00:48:26;;;;;;;19.03;9.83;;;6.80;99.90;;;;;;4998294;28;20462;-66
2023/03/13 00:50:53;;;;;;;18.10;9.00;;;6.80;99.90;;;;;;4998182;28;20527;-65
2023/03/13 00:53:20;;;;;;;19.83;9.37;;;6.80;99.90;;;;;;4998079;28;20457;-64
2023/03/13 00:55:55;;;;;;;16.30;9.40;;;6.80;99.90;;;;;;4998012;28;20527;-67
2023/03/13 00:58:23;;;;;;;14.07;8.90;;;6.80;99.90;;;;;;4998201;28;20481;-66
2023/03/13 01:00:52;;;;;;;26.80;9.63;;;6.80;99.90;;;;;;4997622;28;20548;-65
2023/03/13 01:03:19;;;;;;;24.63;9.90;;;6.90;99.90;;;;;;4997800;28;20489;-66
2023/03/13 01:05:54;;;;;;;21.37;9.07;;;6.90;99.90;;;;;;4998182;28;20454;-65
2023/03/13 01:08:21;;;;;;;22.50;10.60;;;6.90;99.90;;;;;;4998385;28;20446;-65
2023/03/13 01:10:48;;;;;;;17.20;10.10;;;6.90;99.90;;;;;;4998592;28;20553;-64
2023/03/13 01:13:15;;;;;;;16.23;9.53;;;6.80;99.90;;;;;;4997986;28;20457;-64
2023/03/13 01:15:42;;;;;;;24.60;9.73;;;6.90;99.90;;;;;;5029548;28;20491;-66
2023/03/13 01:18:10;;;;;;;23.37;9.70;;;6.90;99.90;;;;;;5036792;28;20466;-66
2023/03/13 01:20:39;;;;;;;20.37;8.70;;;7.00;99.90;;;;;;5037495;28;20909;-65
2023/03/13 01:23:07;;;;;;;19.77;9.77;;;7.00;99.90;;;;;;5037070;28;20466;-65
2023/03/13 01:25:36;;;;;;;17.13;10.00;;;7.00;99.90;;;;;;5036639;28;20488;-65
2023/03/13 01:28:03;;;;;;;13.23;8.50;;;7.00;99.90;;;;;;5036677;28;20479;-64
2023/03/13 01:30:30;;;;;;;17.33;10.00;;;7.10;99.90;;;;;;5036664;28;20854;-65
2023/03/13 01:32:57;;;;;;;17.87;8.83;;;7.10;99.90;;;;;;5036433;28;20466;-65
2023/03/13 01:35:25;;;;;;;17.30;8.80;;;7.10;99.90;;;;;;5036462;28;20862;-64
2023/03/13 01:37:52;;;;;;;16.33;8.57;;;7.10;99.90;;;;;;5036225;28;20460;-65
2023/03/13 01:40:19;;;;;;;19.90;8.43;;;7.10;99.90;;;;;;5036089;28;20484;-65
2023/03/13 01:42:51;;;;;;;14.80;8.43;;;7.10;99.90;;;;;;5036261;28;20460;-66
2023/03/13 01:46:07;;;;;;;12.30;8.43;;;7.10;99.90;;;;;;5036393;28;20539;-64
2023/03/13 01:48:40;;;;;;;18.87;9.20;;;7.20;99.90;;;;;;4956476;29;20455;-65
2023/03/13 01:51:11;;;;;;;19.57;8.30;;;7.20;99.90;;;;;;5020598;28;20470;-65
2023/03/13 01:53:42;;;;;;;13.73;8.50;;;7.20;99.90;;;;;;5036205;28;20445;-65
2023/03/13 01:56:13;;;;;;;16.37;8.13;;;7.20;99.90;;;;;;5036453;28;20511;-66
2023/03/13 01:58:40;;;;;;;13.23;8.00;;;7.20;99.90;;;;;;5036565;28;20551;-66
2023/03/13 02:01:07;;;;;;;14.23;7.17;;;7.20;99.90;;;;;;5037008;28;20845;-66
2023/03/13 02:03:36;;;;;;;18.83;8.20;;;7.20;99.90;;;;;;5035935;28;20487;-66
2023/03/13 02:06:05;;;;;;;14.27;8.87;;;7.20;99.90;;;;;;5036525;28;20513;-64
2023/03/13 02:08:38;;;;;;;15.20;8.30;;;7.20;99.90;;;;;;5036109;28;20456;-66
2023/03/13 02:11:15;;;;;;;18.83;8.60;;;7.20;99.90;;;;;;5036795;28;20436;-65
2023/03/13 02:13:43;;;;;;;13.00;8.00;;;7.30;99.90;;;;;;5037899;28;20754;-64
2023/03/13 02:16:11;;;;;;;14.93;7.73;;;7.30;99.90;;;;;;5036982;28;20456;-66
2023/03/13 02:18:38;;;;;;;16.20;7.73;;;7.30;99.90;;;;;;5036541;28;20480;-65
2023/03/13 02:21:13;;;;;;;11.93;6.97;;;7.30;99.90;;;;;;5036566;28;20460;-65
2023/03/13 02:23:50;;;;;;;11.53;7.63;;;7.30;99.90;;;;;;5036677;28;20819;-66
2023/03/13 02:26:19;;;;;;;13.00;8.37;;;7.30;99.90;;;;;;5035295;28;20531;-66
2023/03/13 02:28:46;;;;;;;18.00;7.60;;;7.30;99.90;;;;;;5036196;28;20521;-65
2023/03/13 02:31:13;;;;;;;16.83;6.87;;;7.30;99.90;;;;;;5035966;28;20990;-65
2023/03/13 02:33:42;;;;;;;15.93;7.63;;;7.40;99.90;;;;;;5036558;28;20488;-65
2023/03/13 02:36:09;;;;;;;9.60;7.03;;;7.40;99.90;;;;;;5036609;28;20522;-66
2023/03/13 02:38:40;;;;;;;20.10;8.23;;;7.30;99.90;;;;;;5036382;28;20543;-66
2023/03/13 02:41:08;;;;;;;11.07;6.63;;;7.30;99.90;;;;;;5037371;28;20472;-66
2023/03/13 02:43:37;;;;;;;11.00;7.23;;;7.30;99.90;;;;;;5037878;28;20455;-65
2023/03/13 02:46:07;;;;;;;12.17;6.47;;;7.30;99.90;;;;;;5037175;28;20459;-64
2023/03/13 02:48:37;;;;;;;10.67;6.50;;;7.30;99.90;;;;;;5037827;28;20467;-65
2023/03/13 02:51:06;;;;;;;14.37;7.00;;;7.30;99.90;;;;;;5037539;28;20463;-65
2023/03/13 02:53:35;;;;;;;11.90;6.17;;;7.40;99.90;;;;;;5036894;28;20460;-65
2023/03/13 02:56:03;;;;;;;18.33;6.60;;;7.40;99.90;;;;;;5037285;28;20511;-65
2023/03/13 02:58:39;;;;;;;13.57;6.23;;;7.40;99.90;;;;;;5037220;28;20491;-65
2023/03/13 03:01:06;;;;;;;11.20;6.17;;;7.50;99.90;;;;;;5038112;28;20486;-65
2023/03/13 03:03:34;;;;;;;11.73;6.37;;;7.50;99.90;;;;;;5037420;28;20788;-65
2023/03/13 03:06:02;;;;;;;17.07;6.10;;;7.50;99.90;;;;;;5038176;28;20464;-66
2023/03/13 03:08:29;;;;;;;10.20;5.73;;;7.40;99.90;;;;;;5037228;28;20547;-65
2023/03/13 03:10:55;;;;;;;13.40;5.90;;;7.50;99.90;;;;;;5036158;28;20924;-65
2023/03/13 03:13:22;;;;;;;12.60;6.10;;;7.50;99.90;;;;;;5037240;28;20921;-64
2023/03/13 03:15:51;;;;;;;18.97;5.67;;;7.50;99.90;;;;;;5037617;28;20499;-65
2023/03/13 03:18:17;;;;;;;13.63;6.00;;;7.50;99.90;;;;;;5036996;28;20840;-65
2023/03/13 03:20:44;;;;;;;16.00;5.40;;;7.50;99.90;;;;;;5036557;28;21019;-66
2023/03/13 03:23:11;;;;;;;18.63;5.03;;;7.60;99.90;;;;;;5034381;28;20456;-66
2023/03/13 03:25:38;;;;;;;12.63;5.40;;;7.60;99.90;;;;;;5034589;28;20455;-66
2023/03/13 03:28:06;;;;;;;16.27;5.10;;;7.60;99.90;;;;;;5034428;28;20470;-65
2023/03/13 03:30:33;;;;;;;13.30;5.40;;;7.60;99.90;;;;;;5034604;28;20884;-64
2023/03/13 03:33:03;;;;;;;19.07;5.77;;;7.70;99.90;;;;;;5034854;28;20558;-65
2023/03/13 03:35:29;;;;;;;10.00;5.23;;;7.70;99.90;;;;;;5034823;28;20931;-65
2023/03/13 03:37:56;;;;;;;10.17;5.90;;;7.60;99.90;;;;;;5038308;28;20559;-67
2023/03/13 03:40:23;;;;;;;13.37;5.00;;;7.60;99.90;;;;;;5038222;28;20784;-66
2023/03/13 03:42:50;;;;;;;24.03;6.30;;;7.60;99.90;;;;;;5037795;28;20928;-66
2023/03/13 03:45:17;;;;;;;15.50;5.70;;;7.60;99.90;;;;;;5037806;28;20551;-65
2023/03/13 03:47:44;;;;;;;15.80;5.87;;;7.60;99.90;;;;;;5038293;28;20466;-65
2023/03/13 03:50:12;;;;;;;14.57;6.40;;;7.50;99.90;;;;;;5038183;28;20537;-65
2023/03/13 03:52:39;;;;;;;12.17;5.20;;;7.50;99.90;;;;;;5038141;28;20459;-65
2023/03/13 03:55:06;;;;;;;11.87;6.13;;;7.50;99.90;;;;;;5037725;28;20466;-66
2023/03/13 03:57:33;;;;;;;14.17;5.53;;;7.50;99.90;;;;;;5048171;28;20886;-66
2023/03/13 04:00:00;;;;;;;13.13;6.07;;;7.50;99.90;;;;;;5057774;28;20479;-65
2023/03/13 04:02:27;;;;;;;13.73;5.93;;;7.40;99.90;;;;;;5057578;28;20542;-66
2023/03/13 04:04:54;;;;;;;10.77;5.33;;;7.40;99.90;;;;;;5057374;28;20459;-66
2023/03/13 04:07:22;;;;;;;11.10;5.87;;;7.50;99.90;;;;;;5057894;28;20455;-65
2023/03/13 04:09:49;;;;;;;12.07;6.10;;;7.50;99.90;;;;;;5057948;28;20461;-65
2023/03/13 04:12:16;;;;;;;20.53;6.37;;;7.50;99.90;;;;;;5058039;28;20455;-66
2023/03/13 04:14:42;;;;;;;17.10;6.40;;;7.50;99.90;;;;;;5057248;28;20562;-66
2023/03/13 04:17:09;;;;;;;12.53;5.70;;;7.50;99.90;;;;;;5057030;28;20469;-65
2023/03/13 04:19:36;;;;;;;15.17;4.60;;;7.50;99.90;;;;;;5057247;28;20568;-66
2023/03/13 04:22:03;;;;;;;19.43;5.80;;;7.50;99.90;;;;;;5057416;28;20471;-66
2023/03/13 04:24:32;;;;;;;15.17;5.10;;;7.40;99.90;;;;;;5057227;28;20455;-66
2023/03/13 04:26:59;;;;;;;14.47;6.00;;;7.50;99.90;;;;;;5057374;28;20455;-65
2023/03/13 04:29:26;;;;;;;23.03;5.60;;;7.50;99.90;;;;;;5057455;28;20455;-64
2023/03/13 04:31:53;;;;;;;24.07;5.50;;;7.40;99.90;;;;;;5056803;28;20944;-66
2023/03/13 04:34:19;;;;;;;10.10;5.43;;;7.50;99.90;;;;;;5057501;28;20459;-64
2023/03/13 04:36:46;;;;;;;16.03;5.90;;;7.40;99.90;;;;;;5057144;28;20787;-66
2023/03/13 04:39:13;;;;;;;16.77;6.30;;;7.40;99.90;;;;;;5057069;28;20455;-65
2023/03/13 04:41:41;;;;;;;16.53;5.27;;;7.40;99.90;;;;;;5056606;28;20534;-66
2023/03/13 04:44:08;;;;;;;14.97;4.77;;;7.40;99.90;;;;;;5057269;28;20797;-65
2023/03/13 04:46:35;;;;;;;12.63;4.13;;;7.40;99.90;;;;;;5056722;28;20935;-66
2023/03/13 04:49:02;;;;;;;15.07;5.10;;;7.40;99.90;;;;;;5056536;28;20459;-66
2023/03/13 04:51:29;;;;;;;14.57;5.53;;;7.40;99.90;;;;;;5057231;28;20459;-66
2023/03/13 04:53:55;;;;;;;17.60;4.70;;;7.40;99.90;;;;;;5057222;28;20795;-66
2023/03/13 04:56:25;;;;;;;13.50;4.70;;;7.40;99.90;;;;;;5057246;28;20455;-66
2023/03/13 04:58:53;;;;;;;11.83;5.10;;;7.40;99.90;;;;;;5056856;28;20938;-66
2023/03/13 05:01:21;;;;;;;20.40;4.60;;;7.40;99.90;;;;;;5056734;28;20483;-66
2023/03/13 05:03:48;;;;;;;17.80;5.13;;;7.40;99.90;;;;;;5059363;28;20923;-65
2023/03/13 05:06:15;;;;;;;10.57;4.23;;;7.40;99.90;;;;;;5059956;28;20466;-66
2023/03/13 05:08:41;;;;;;;15.43;6.27;;;7.40;99.90;;;;;;5060062;28;20538;-66
2023/03/13 05:11:08;;;;;;;11.77;3.77;;;7.40;99.90;;;;;;5060983;28;20487;-66
2023/03/13 05:13:35;;;;;;;10.57;4.13;;;7.40;99.90;;;;;;5061130;28;20496;-66
2023/03/13 05:16:04;;;;;;;14.60;4.63;;;7.40;99.90;;;;;;5061802;28;20586;-66
2023/03/13 05:18:31;;;;;;;19.03;4.93;;;7.40;99.90;;;;;;5058622;28;20562;-66
2023/03/13 05:20:58;;;;;;;11.13;4.10;;;7.40;99.90;;;;;;5057841;28;20475;-65
2023/03/13 05:23:24;;;;;;;26.33;4.83;;;7.40;99.90;;;;;;5057524;28;20520;-66
2023/03/13 05:25:51;;;;;;;16.27;4.83;;;7.50;99.90;;;;;;5057088;28;20538;-66
2023/03/13 05:28:18;;;;;;;16.13;5.33;;;7.50;99.90;;;;;;5057543;28;20466;-65
2023/03/13 05:30:45;;;;;;;15.07;3.90;;;7.50;99.90;;;;;;5057370;28;20544;-65
2023/03/13 05:33:13;;;;;;;16.93;4.37;;;7.60;99.90;;;;;;5057794;28;20874;-65
2023/03/13 05:35:40;;;;;;;23.90;5.20;;;7.50;99.90;;;;;;5057738;28;20834;-66
2023/03/13 05:38:07;;;;;;;11.53;4.10;;;7.60;99.90;;;;;;5057313;28;20912;-66
2023/03/13 05:40:34;;;;;;;9.67;4.10;;;7.60;99.90;;;;;;5057237;28;20493;-65
2023/03/13 05:43:01;;;;;;;15.00;4.50;;;7.60;99.90;;;;;;5057043;28;20465;-66
2023/03/13 05:45:28;;;;;;;15.43;5.47;;;7.60;99.90;;;;;;5057214;28;20455;-66
2023/03/13 05:47:55;;;;;;;20.23;4.70;;;7.50;99.90;;;;;;5057127;28;20455;-66
2023/03/13 05:50:23;;;;;;;12.50;5.90;;;7.50;99.90;;;;;;5057516;28;20452;-65
2023/03/13 05:52:49;;;;;;;22.97;5.30;;;7.60;99.90;;;;;;5057473;28;20481;-66
2023/03/13 05:55:16;;;;;;;16.33;5.97;;;7.50;99.90;;;;;;5057276;28;20466;-66
2023/03/13 05:57:45;;;;;;;16.17;4.53;;;7.50;99.90;;;;;;5057836;28;20459;-67
2023/03/13 06:00:13;;;;;;;14.70;5.13;;;7.50;99.90;;;;;;5055770;28;20479;-66
2023/03/13 06:02:40;;;;;;;23.53;6.07;;;7.50;99.90;;;;;;5056694;28;20460;-66
2023/03/13 06:05:08;;;;;;;16.17;4.67;;;7.50;99.90;;;;;;5057423;28;20459;-65
2023/03/13 06:07:36;;;;;;;17.93;5.03;;;7.50;99.90;;;;;;5057065;28;20538;-66
2023/03/13 06:10:04;;;;;;;21.90;5.50;;;7.50;99.90;;;;;;5056497;28;20453;-66
2023/03/13 06:12:31;;;;;;;11.63;5.27;;;7.60;99.90;;;;;;5055675;28;20455;-66
2023/03/13 06:14:58;;;;;;;16.10;5.53;;;7.50;99.90;;;;;;5056243;28;20552;-65
2023/03/13 06:17:25;;;;;;;18.20;6.00;;;7.50;99.90;;;;;;5057003;28;20555;-66
2023/03/13 06:19:52;;;;;;;16.70;5.80;;;7.50;99.90;;;;;;5056715;28;20482;-66
2023/03/13 06:22:19;;;;;;;19.60;6.00;;;7.50;99.90;;;;;;5056504;28;20463;-66
2023/03/13 06:24:48;;;;;;;17.43;5.90;;;7.50;99.90;;;;;;5056387;28;20459;-66
2023/03/13 06:27:15;;;;;;;15.73;5.43;;;7.50;99.90;;;;;;5055649;28;20550;-65
2023/03/13 06:29:42;;;;;;;15.20;5.03;;;7.50;99.90;;;;;;5055961;28;20504;-66
2023/03/13 06:32:09;;;;;;;15.20;6.27;;;7.50;99.90;;;;;;5056016;28;20904;-66
2023/03/13 06:34:36;;;;;;;19.40;6.77;;;7.50;99.90;;;;;;5055894;28;20869;-66
2023/03/13 06:37:03;;;;;;;16.53;6.70;;;7.50;99.90;;;;;;5055141;28;20470;-67
2023/03/13 06:39:30;;;;;;;20.87;5.67;;;7.50;99.90;;;;;;5054996;28;20455;-66
2023/03/13 06:41:58;;;;;;;17.77;5.47;;;7.50;99.90;;;;;;5054983;28;20479;-66
2023/03/13 06:44:26;;;;;;;20.47;6.03;;;7.50;99.90;;;;;;5054823;28;20465;-67
2023/03/13 06:46:52;;;;;;;21.30;5.60;;;7.50;99.90;;;;;;5055657;28;20459;-67
2023/03/13 06:49:20;;;;;;;20.10;6.13;;;7.50;99.90;;;;;;5055338;28;20454;-66
2023/03/13 06:51:47;;;;;;;13.17;5.60;;;7.50;99.90;;;;;;5055075;28;20760;-66
2023/03/13 06:54:13;;;;;;;20.37;7.53;;;7.50;99.90;;;;;;5055752;28;20459;-65
2023/03/13 06:56:40;;;;;;;17.07;5.70;;;7.50;99.90;;;;;;5055428;28;20541;-66
2023/03/13 06:59:09;;;;;;;18.63;6.00;;;7.60;99.90;;;;;;5054532;28;20545;-66
2023/03/13 07:01:35;;;;;;;16.77;5.83;;;7.60;99.90;;;;;;5054814;28;20570;-65
2023/03/13 07:04:02;;;;;;;15.33;5.57;;;7.60;99.90;;;;;;5054556;28;20455;-66
2023/03/13 07:06:29;;;;;;;20.27;5.90;;;7.60;99.90;;;;;;5054540;28;20521;-67
2023/03/13 07:08:56;;;;;;;17.93;6.50;;;7.60;99.90;;;;;;5054581;28;20500;-66
2023/03/13 07:11:23;;;;;;;15.83;5.80;;;7.60;99.90;;;;;;5055970;28;20790;-67
2023/03/13 07:13:50;;;;;;;20.43;5.80;;;7.60;99.90;;;;;;5050506;28;20511;-67
2023/03/13 07:16:19;;;;;;;18.83;5.83;;;7.60;99.90;;;;;;5058278;28;20494;-65
2023/03/13 07:18:46;;;;;;;17.83;5.43;;;7.70;99.90;;;;;;5058165;28;20859;-65
2023/03/13 07:21:13;;;;;;;19.83;6.10;;;7.70;99.90;;;;;;5058280;28;20565;-66
2023/03/13 07:23:40;;;;;;;16.43;5.00;;;7.80;99.90;;;;;;5057504;28;20557;-65
2023/03/13 07:26:10;;;;;;;22.53;5.13;;;7.80;99.90;;;;;;5058224;28;20961;-67
2023/03/13 07:28:37;;;;;;;19.07;7.00;;;7.80;99.90;;;;;;5058788;28;20461;-66
2023/03/13 07:31:05;;;;;;;18.87;6.10;;;7.80;99.90;;;;;;5059363;28;20465;-66
2023/03/13 07:33:34;;;;;;;10.20;4.83;;;7.80;99.90;;;;;;5059245;28;20461;-66
2023/03/13 07:36:00;;;;;;;13.70;5.60;;;7.80;99.90;;;;;;5058193;28;20478;-66
2023/03/13 07:38:27;;;;;;;22.47;7.27;;;7.80;99.90;;;;;;5058927;28;20465;-66
2023/03/13 07:40:56;;;;;;;17.40;5.17;;;7.90;99.90;;;;;;5058345;28;20488;-66
2023/03/13 07:43:24;;;;;;;23.90;6.80;;;7.90;99.90;;;;;;5058239;28;20465;-65
2023/03/13 07:45:53;;;;;;;20.73;5.57;;;7.90;99.90;;;;;;5058213;28;20998;-67
2023/03/13 07:48:20;;;;;;;23.10;5.70;;;7.90;99.90;;;;;;5058716;28;20518;-67
2023/03/13 07:50:49;;;;;;;18.30;5.33;;;8.00;99.90;;;;;;5059620;28;20537;-66
2023/03/13 07:53:19;;;;;;;15.03;5.20;;;8.00;99.90;;;;;;5059451;28;20989;-66
2023/03/13 07:55:56;;;;;;;25.23;5.50;;;8.00;99.90;;;;;;5059036;28;20466;-66
2023/03/13 07:58:24;;;;;;;21.23;5.80;;;8.00;99.90;;;;;;5060653;28;20505;-66
2023/03/13 08:00:51;;;;;;;19.73;6.17;;;8.00;99.90;;;;;;5059663;28;20569;-65
2023/03/13 08:03:18;;;;;;;24.03;8.47;;;8.10;99.90;;;;;;5059533;28;20461;-67
2023/03/13 08:05:45;;;;;;;16.63;5.80;;;8.10;99.90;;;;;;5059658;28;20630;-67
2023/03/13 08:08:13;;;;;;;20.33;4.53;;;8.10;99.90;;;;;;5059344;28;20539;-67
2023/03/13 08:10:40;;;;;;;17.60;4.87;;;8.20;99.90;;;;;;5058794;28;20542;-67
2023/03/13 08:13:07;;;;;;;14.83;5.37;;;8.20;99.90;;;;;;5058986;28;20458;-66
2023/03/13 08:15:34;;;;;;;19.50;5.73;;;8.20;99.90;;;;;;5060021;28;20483;-65
2023/03/13 08:18:00;;;;;;;21.83;5.00;;;8.20;99.90;;;;;;5058576;28;20455;-66
2023/03/13 08:20:28;;;;;;;17.30;5.33;;;8.20;99.90;;;;;;5058932;28;20524;-66
2023/03/13 08:22:57;;;;;;;19.63;5.27;;;8.30;99.90;;;;;;5057324;28;20563;-66
2023/03/13 08:25:25;;;;;;;16.57;5.70;;;8.30;99.90;;;;;;5058372;28;20459;-65
2023/03/13 08:27:52;;;;;;;15.63;5.33;;;8.30;99.90;;;;;;5058422;28;20565;-64
2023/03/13 08:30:19;;;;;;;13.10;4.57;;;8.30;99.90;;;;;;5058127;28;20541;-66
2023/03/13 08:32:46;;;;;;;18.03;5.10;;;8.30;99.90;;;;;;5058507;28;20459;-66
2023/03/13 08:35:13;;;;;;;13.77;5.47;;;8.30;99.90;;;;;;5058742;28;20459;-67
2023/03/13 08:37:39;;;;;;;19.20;5.00;;;8.40;99.90;;;;;;5059160;28;20475;-66
2023/03/13 08:40:10;;;;;;;16.30;6.07;;;8.40;99.90;;;;;;5059065;28;20490;-65
2023/03/13 08:42:39;;;;;;;11.50;5.23;;;8.40;99.90;;;;;;5059193;28;20545;-66
2023/03/13 08:45:07;;;;;;;24.97;6.63;;;8.50;99.90;;;;;;5059279;28;20451;-65
2023/03/13 08:47:34;;;;;;;14.10;5.07;;;8.50;99.90;;;;;;5059322;28;20459;-65
2023/03/13 08:50:01;;;;;;;13.57;5.07;;;8.40;99.90;;;;;;5058746;28;20578;-65
2023/03/13 08:52:27;;;;;;;13.50;5.47;;;8.50;99.90;;;;;;5039929;28;20452;-66
2023/03/13 08:54:54;;;;;;;19.03;5.87;;;8.50;99.90;;;;;;5055625;28;20466;-66
2023/03/13 08:57:22;;;;;;;21.20;5.63;;;8.60;99.90;;;;;;5059723;28;20452;-65
2023/03/13 08:59:51;;;;;;;12.20;5.40;;;8.60;99.90;;;;;;5060460;28;20455;-66
2023/03/13 09:02:19;;;;;;;19.83;5.13;;;8.60;99.90;;;;;;5060058;28;20506;-65
2023/03/13 09:04:48;;;;;;;14.83;5.53;;;8.60;99.90;;;;;;5060362;28;20466;-65
2023/03/13 09:07:15;;;;;;;17.07;5.70;;;8.70;99.90;;;;;;5060137;28;20459;-66
2023/03/13 09:09:42;;;;;;;17.57;6.00;;;8.70;99.90;;;;;;5059655;28;20550;-66
2023/03/13 09:12:10;;;;;;;12.57;5.37;;;8.80;99.90;;;;;;5059484;28;20451;-65
2023/03/13 09:14:37;;;;;;;15.77;5.30;;;8.80;99.90;;;;;;5059640;28;20533;-65
2023/03/13 09:17:05;;;;;;;16.57;6.57;;;8.80;99.90;;;;;;5060110;28;20448;-66
2023/03/13 09:19:33;;;;;;;15.67;5.80;;;8.90;99.90;;;;;;5059489;28;20465;-65
2023/03/13 09:21:59;;;;;;;11.93;5.50;;;8.90;99.90;;;;;;5059254;28;20484;-64
2023/03/13 09:24:26;;;;;;;21.60;5.47;;;9.00;99.90;;;;;;5059063;28;20904;-65
2023/03/13 09:26:53;;;;;;;16.93;5.70;;;9.00;99.90;;;;;;5059684;28;20482;-67
2023/03/13 09:29:20;;;;;;;15.77;6.03;;;9.00;99.90;;;;;;5059972;28;20795;-65
2023/03/13 09:31:47;;;;;;;13.63;4.57;;;9.10;99.90;;;;;;5060829;28;20490;-66
2023/03/13 09:34:15;;;;;;;13.20;4.70;;;9.00;99.90;;;;;;5060395;28;20467;-66
2023/03/13 09:36:42;;;;;;;10.10;5.00;;;9.10;99.90;;;;;;5057921;28;20550;-66
2023/03/13 09:39:09;;;;;;;11.27;4.73;;;9.10;99.90;;;;;;5058048;28;20465;-65
2023/03/13 09:41:40;;;;;;;14.63;5.00;;;9.10;99.90;;;;;;5058703;28;20556;-66
2023/03/13 09:44:14;;;;;;;12.10;3.70;;;9.20;99.90;;;;;;5059201;28;20449;-66
2023/03/13 09:46:46;;;;;;;12.40;4.10;;;9.20;99.90;;;;;;5058550;28;20523;-66
2023/03/13 09:49:29;;;;;;;14.43;4.97;;;9.20;99.90;;;;;;5056895;28;20835;-66
2023/03/13 09:52:04;;;;;;;8.67;4.30;;;9.20;99.90;;;;;;5056128;28;20466;-64
2023/03/13 09:54:37;;;;;;;16.03;4.80;;;9.30;99.90;;;;;;5055759;28;20443;-63
2023/03/13 09:57:12;;;;;;;12.80;5.17;;;9.30;99.90;;;;;;5055894;28;20443;-61
2023/03/13 09:59:47;;;;;;;13.67;5.20;;;9.30;99.90;;;;;;5056173;28;20455;-64
2023/03/13 10:02:25;;;;;;;11.23;4.20;;;9.30;99.90;;;;;;5055928;28;20489;-62
2023/03/13 10:04:59;;;;;;;21.60;4.10;;;9.30;99.90;;;;;;5055557;28;20972;-63
2023/03/13 10:07:26;;;;;;;9.80;4.07;;;9.40;99.90;;;;;;5055347;28;20471;-63
2023/03/13 10:09:53;;;;;;;18.10;4.73;;;9.40;99.90;;;;;;5054892;28;20454;-62
2023/03/13 10:12:23;;;;;;;8.30;3.93;;;9.50;99.90;;;;;;5055596;28;20844;-62
2023/03/13 10:15:00;;;;;;;6.83;4.20;;;9.50;99.90;;;;;;5055152;28;20589;-62
2023/03/13 10:17:33;;;;;;;6.53;3.50;;;9.60;99.90;;;;;;5055070;28;20947;-64
2023/03/13 10:20:13;;;;;;;12.70;4.03;;;9.60;99.90;;;;;;5055373;28;20526;-64
2023/03/13 10:22:42;;;;;;;7.87;3.30;;;9.60;99.90;;;;;;5055626;28;20561;-62
2023/03/13 10:25:19;;;;;;;8.10;3.50;;;9.70;99.90;;;;;;5057064;28;20466;-63
2023/03/13 10:27:50;;;;;;;13.63;4.37;;;9.70;99.90;;;;;;5059499;28;20475;-62
2023/03/13 10:30:23;;;;;;;6.17;3.10;;;9.80;99.90;;;;;;5062410;28;20455;-63
2023/03/13 10:32:50;;;;;;;7.77;3.03;;;9.90;99.90;;;;;;5060599;28;20436;-63
2023/03/13 10:35:31;;;;;;;8.70;4.87;;;9.90;99.90;;;;;;5059397;28;20459;-62
2023/03/13 10:38:03;;;;;;;9.03;3.20;;;10.00;99.90;;;;;;5068913;28;20474;-63
2023/03/13 10:40:30;;;;;;;7.17;3.73;;;10.00;99.90;;;;;;5065301;28;20474;-63
2023/03/13 10:43:02;;;;;;;12.30;3.90;;;10.00;99.90;;;;;;5064755;28;20478;-62
2023/03/13 10:45:34;;;;;;;8.70;3.57;;;10.10;99.90;;;;;;5061946;28;20536;-61
2023/03/13 10:48:03;;;;;;;6.33;3.53;;;10.30;99.90;;;;;;5060317;28;20439;-63
2023/03/13 10:50:35;;;;;;;6.10;3.10;;;10.40;99.90;;;;;;5057711;28;20455;-61
2023/03/13 10:53:21;;;;;;;5.53;2.87;;;10.50;99.90;;;;;;5055516;28;20450;-62
2023/03/13 10:55:48;;;;;;;7.27;4.47;;;10.60;99.90;;;;;;5055093;28;20443;-62
2023/03/13 10:58:19;;;;;;;4.73;2.10;;;10.70;99.90;;;;;;5054890;28;20627;-62
2023/03/13 11:00:46;;;;;;;6.37;2.47;;;10.80;99.90;;;;;;5054744;28;20454;-63
2023/03/13 11:03:17;;;;;;;3.80;2.37;;;10.90;99.90;;;;;;5054428;28;20478;-62
2023/03/13 11:05:55;;;;;;;10.40;3.40;;;11.10;99.90;;;;;;5054415;28;20454;-63
2023/03/13 11:08:24;;;;;;;4.80;2.70;;;11.20;99.90;;;;;;5055553;28;20439;-63
2023/03/13 11:10:58;;;;;;;2.90;2.37;;;11.30;99.90;;;;;;5055958;28;20534;-63
2023/03/13 11:13:35;;;;;;;7.90;3.63;;;11.40;99.90;;;;;;5054364;28;20706;-64
2023/03/13 11:16:11;;;;;;;6.33;2.27;;;11.50;99.90;;;;;;5054405;28;20834;-63
2023/03/13 11:18:47;;;;;;;4.53;2.73;;;11.60;99.90;;;;;;5054547;28;20626;-62
2023/03/13 11:21:23;;;;;;;6.57;2.07;;;11.80;99.90;;;;;;5054388;28;20533;-64
2023/03/13 11:24:00;;;;;;;6.13;2.50;;;12.00;99.90;;;;;;5054514;28;20992;-63
2023/03/13 11:26:34;;;;;;;3.47;1.90;;;12.00;99.90;;;;;;5054164;28;20910;-62
2023/03/13 11:29:09;;;;;;;3.20;2.23;;;12.10;99.90;;;;;;5054163;28;20439;-62
2023/03/13 11:31:41;;;;;;;2.03;1.57;;;12.20;99.90;;;;;;5054036;28;20441;-63
2023/03/13 11:34:17;;;;;;;3.90;1.60;;;12.30;99.90;;;;;;5054030;28;20912;-63
2023/03/13 11:36:52;;;;;;;3.53;1.70;;;12.40;99.90;;;;;;5053708;28;20443;-64
2023/03/13 11:39:51;;;;;;;3.00;2.07;;;12.40;99.90;;;;;;5054496;28;20453;-63
2023/03/13 11:42:40;;;;;;;3.07;1.53;;;12.50;99.90;;;;;;5053893;28;20539;-63
2023/03/13 11:45:17;;;;;;;2.43;2.00;;;12.60;99.90;;;;;;5054176;28;20538;-63
2023/03/13 11:47:53;;;;;;;4.13;1.97;;;12.70;99.90;;;;;;5054395;28;20951;-64
2023/03/13 11:50:36;;;;;;;4.13;1.60;;;12.80;99.90;;;;;;5054201;28;20783;-64
2023/03/13 11:53:22;;;;;;;2.77;1.70;;;12.80;99.90;;;;;;5053982;28;20530;-65
2023/03/13 11:56:07;;;;;;;2.37;1.50;;;12.80;99.90;;;;;;5054298;28;20454;-62
2023/03/13 11:59:08;;;;;;;3.53;1.70;;;12.80;99.90;;;;;;5056128;28;20473;-63
2023/03/13 12:01:39;;;;;;;3.20;1.57;;;12.80;99.90;;;;;;5057045;28;20485;-63
2023/03/13 12:04:14;;;;;;;5.63;1.57;;;12.80;99.90;;;;;;5057013;28;20453;-63
2023/03/13 12:06:46;;;;;;;2.30;1.53;;;12.90;99.90;;;;;;5057410;28;20836;-63
2023/03/13 12:09:22;;;;;;;2.53;1.70;;;12.90;99.90;;;;;;5057868;28;20453;-63
2023/03/13 12:11:54;;;;;;;1.50;1.10;;;13.00;99.90;;;;;;5057048;28;20493;-63
2023/03/13 12:14:26;;;;;;;2.50;1.57;;;13.20;99.90;;;;;;5057103;28;20471;-62
2023/03/13 12:16:56;;;;;;;3.13;1.40;;;13.40;99.90;;;;;;5057258;28;20466;-61
2023/03/13 12:19:29;;;;;;;4.13;1.40;;;13.60;99.90;;;;;;5057205;28;20490;-63
2023/03/13 12:21:58;;;;;;;1.80;1.33;;;13.70;99.90;;;;;;5056887;28;20472;-62
2023/03/13 12:24:33;;;;;;;4.53;1.43;;;13.70;99.90;;;;;;5056903;28;20548;-64
2023/03/13 12:27:08;;;;;;;2.27;1.20;;;13.70;99.90;;;;;;5057335;28;20507;-63
2023/03/13 12:29:44;;;;;;;3.23;1.63;;;13.70;99.90;;;;;;5056814;28;20443;-63
2023/03/13 12:32:16;;;;;;;1.80;1.20;;;13.80;99.90;;;;;;5057142;28;20435;-64
2023/03/13 12:34:59;;;;;;;4.80;1.57;;;13.80;99.90;;;;;;5056964;28;20454;-64
2023/03/13 12:37:34;;;;;;;2.93;1.50;;;13.80;99.90;;;;;;5057323;28;20786;-62
2023/03/13 12:40:12;;;;;;;2.70;1.07;;;13.90;99.90;;;;;;5058563;28;20439;-67
2023/03/13 12:42:47;;;;;;;3.27;1.20;;;14.10;99.90;;;;;;5059083;28;20474;-66
2023/03/13 12:45:17;;;;;;;2.07;1.10;;;14.40;99.90;;;;;;5059582;28;20458;-65
2023/03/13 12:48:19;;;;;;;3.50;1.00;;;14.40;99.90;;;;;;5060143;28;20910;-65
2023/03/13 12:51:01;;;;;;;1.80;1.20;;;14.50;99.90;;;;;;5059185;28;20443;-66
2023/03/13 12:53:48;;;;;;;1.70;1.13;;;14.70;99.90;;;;;;5059292;28;20436;-65
2023/03/13 12:56:34;;;;;;;3.37;1.20;;;15.40;99.90;;;;;;5058633;28;20630;-66
2023/03/13 12:59:07;;;;;;;2.63;1.00;;;16.30;99.90;;;;;;5057512;28;20518;-65